METAR Data

Data at: 2058 UTC 01 Dec 2021

METAR for:KSFM (Sanford Rgnl, ME, US)
Text:KSFM 012056Z AUTO 25007KT 10SM 05/M06 A3007 RMK AO2 SLP188 T00501056 53018 $
Temperature: 5.0°C ( 41°F)
Dewpoint: -5.6°C ( 22°F) [RH = 46%]
Pressure (altimeter):30.07 inches Hg (1018.4 mb) [Sea level pressure: 1018.8 mb]
Winds:from the WSW (250 degrees) at 8 MPH (7 knots; 3.6 m/s)
Visibility:10 or more sm (16+ km)
QC Flag:automated observation with no human augmentation; SOME DATA ABOVE MAY BE INACCURATE!!!"$" is an indication the sensor requires maintenance.